sensor_id;sensor_type;location;lat;lon;timestamp;pressure;altitude;pressure_sealevel;temperature;humidity
829;BME280;396;52.558;13.188;2023-02-15T00:02:00;102689.78;;;1.75;98.76
829;BME280;396;52.558;13.188;2023-02-15T00:04:27;102696.06;;;1.67;99.46
829;BME280;396;52.558;13.188;2023-02-15T00:07:13;102689.19;;;1.58;98.43
829;BME280;396;52.558;13.188;2023-02-15T00:09:40;102692.41;;;1.54;98.58
829;BME280;396;52.558;13.188;2023-02-15T00:12:08;102685.34;;;1.46;98.46
829;BME280;396;52.558;13.188;2023-02-15T00:14:35;102685.34;;;1.46;99.57
829;BME280;396;52.558;13.188;2023-02-15T00:17:01;102668.06;;;1.42;100.00
829;BME280;396;52.558;13.188;2023-02-15T00:19:28;102673.59;;;1.40;100.00
829;BME280;396;52.558;13.188;2023-02-15T00:21:55;102676.13;;;1.48;100.00
829;BME280;396;52.558;13.188;2023-02-15T00:24:23;102668.25;;;1.40;99.56
829;BME280;396;52.558;13.188;2023-02-15T00:26:49;102661.34;;;1.31;100.00
829;BME280;396;52.558;13.188;2023-02-15T00:29:17;102661.63;;;1.36;100.00
829;BME280;396;52.558;13.188;2023-02-15T00:31:44;102663.97;;;1.24;99.60
829;BME280;396;52.558;13.188;2023-02-15T00:34:13;102667.38;;;1.18;99.83
829;BME280;396;52.558;13.188;2023-02-15T00:36:40;102667.38;;;1.18;99.06
829;BME280;396;52.558;13.188;2023-02-15T00:39:07;102668.38;;;1.17;99.60
829;BME280;396;52.558;13.188;2023-02-15T00:41:35;102670.44;;;1.15;100.00
829;BME280;396;52.558;13.188;2023-02-15T00:44:02;102668.59;;;1.16;100.00
829;BME280;396;52.558;13.188;2023-02-15T00:46:29;102672.97;;;1.23;99.84
829;BME280;396;52.558;13.188;2023-02-15T00:48:56;102667.75;;;1.15;100.00
829;BME280;396;52.558;13.188;2023-02-15T00:51:23;102664.63;;;1.12;100.00
829;BME280;396;52.558;13.188;2023-02-15T00:53:50;102663.91;;;1.03;98.78
829;BME280;396;52.558;13.188;2023-02-15T00:56:17;102663.25;;;1.01;99.77
829;BME280;396;52.558;13.188;2023-02-15T00:58:45;102661.50;;;1.08;99.14
829;BME280;396;52.558;13.188;2023-02-15T01:01:14;102652.19;;;1.19;98.64
829;BME280;396;52.558;13.188;2023-02-15T01:03:42;102646.06;;;1.04;100.00
829;BME280;396;52.558;13.188;2023-02-15T01:06:09;102647.34;;;0.93;100.00
829;BME280;396;52.558;13.188;2023-02-15T01:08:36;102650.31;;;0.98;100.00
829;BME280;396;52.558;13.188;2023-02-15T01:11:04;102646.63;;;0.99;100.00
829;BME280;396;52.558;13.188;2023-02-15T01:13:31;102638.81;;;0.83;100.00
829;BME280;396;52.558;13.188;2023-02-15T01:15:59;102636.88;;;0.77;100.00
829;BME280;396;52.558;13.188;2023-02-15T01:18:26;102640.94;;;0.72;100.00
829;BME280;396;52.558;13.188;2023-02-15T01:20:52;102632.38;;;0.77;100.00
829;BME280;396;52.558;13.188;2023-02-15T01:23:19;102631.63;;;0.83;100.00
829;BME280;396;52.558;13.188;2023-02-15T01:25:46;102635.97;;;0.69;100.00
829;BME280;396;52.558;13.188;2023-02-15T01:28:12;102632.75;;;0.74;100.00
829;BME280;396;52.558;13.188;2023-02-15T01:30:39;102632.56;;;0.75;100.00
829;BME280;396;52.558;13.188;2023-02-15T01:33:07;102632.00;;;0.80;100.00
829;BME280;396;52.558;13.188;2023-02-15T01:35:42;102629.78;;;0.84;100.00
829;BME280;396;52.558;13.188;2023-02-15T01:38:09;102624.94;;;0.72;100.00
829;BME280;396;52.558;13.188;2023-02-15T01:40:35;102624.19;;;0.64;100.00
829;BME280;396;52.558;13.188;2023-02-15T01:43:09;102614.63;;;0.69;100.00
829;BME280;396;52.558;13.188;2023-02-15T01:45:36;102598.34;;;0.64;100.00
829;BME280;396;52.558;13.188;2023-02-15T01:48:04;102598.47;;;0.71;100.00
829;BME280;396;52.558;13.188;2023-02-15T01:50:35;102594.56;;;0.73;100.00
829;BME280;396;52.558;13.188;2023-02-15T01:53:07;102586.66;;;0.65;100.00
829;BME280;396;52.558;13.188;2023-02-15T01:55:38;102579.78;;;0.56;100.00
829;BME280;396;52.558;13.188;2023-02-15T01:58:06;102576.41;;;0.62;100.00
829;BME280;396;52.558;13.188;2023-02-15T02:00:33;102579.69;;;0.64;100.00
829;BME280;396;52.558;13.188;2023-02-15T02:03:25;102572.25;;;0.60;98.87
829;BME280;396;52.558;13.188;2023-02-15T02:05:57;102572.72;;;0.63;98.92
829;BME280;396;52.558;13.188;2023-02-15T02:08:24;102572.25;;;0.60;98.33
829;BME280;396;52.558;13.188;2023-02-15T02:10:50;102566.66;;;0.55;98.87
829;BME280;396;52.558;13.188;2023-02-15T02:13:17;102567.22;;;0.50;99.55
829;BME280;396;52.558;13.188;2023-02-15T02:15:47;102565.28;;;0.59;99.62
829;BME280;396;52.558;13.188;2023-02-15T02:18:26;102566.00;;;0.53;99.30
829;BME280;396;52.558;13.188;2023-02-15T02:21:25;102569.13;;;0.56;98.56
829;BME280;396;52.558;13.188;2023-02-15T02:24:16;102555.53;;;0.51;98.94
829;BME280;396;52.558;13.188;2023-02-15T02:30:22;102555.97;;;0.40;100.00
829;BME280;396;52.558;13.188;2023-02-15T02:33:21;102560.22;;;0.49;100.00
829;BME280;396;52.558;13.188;2023-02-15T02:35:59;102553.22;;;0.48;100.00
829;BME280;396;52.558;13.188;2023-02-15T02:38:34;102543.84;;;0.52;100.00
829;BME280;396;52.558;13.188;2023-02-15T02:41:13;102547.78;;;0.56;100.00
829;BME280;396;52.558;13.188;2023-02-15T02:43:48;102547.25;;;0.46;100.00
829;BME280;396;52.558;13.188;2023-02-15T02:46:22;102543.22;;;0.50;100.00
829;BME280;396;52.558;13.188;2023-02-15T02:48:52;102546.25;;;0.47;100.00
829;BME280;396;52.558;13.188;2023-02-15T02:51:19;102543.00;;;0.52;100.00
829;BME280;396;52.558;13.188;2023-02-15T02:53:50;102532.34;;;0.52;100.00
829;BME280;396;52.558;13.188;2023-02-15T02:56:22;102542.56;;;0.48;100.00
829;BME280;396;52.558;13.188;2023-02-15T02:58:56;102538.81;;;0.42;100.00
829;BME280;396;52.558;13.188;2023-02-15T03:01:29;102536.41;;;0.47;100.00
829;BME280;396;52.558;13.188;2023-02-15T03:04:01;102532.19;;;0.38;99.42
829;BME280;396;52.558;13.188;2023-02-15T03:06:33;102529.97;;;0.42;99.48
829;BME280;396;52.558;13.188;2023-02-15T03:09:08;102527.50;;;0.40;99.03
829;BME280;396;52.558;13.188;2023-02-15T03:11:40;102515.00;;;0.41;98.83
829;BME280;396;52.558;13.188;2023-02-15T03:14:07;102518.22;;;0.36;98.63
829;BME280;396;52.558;13.188;2023-02-15T03:16:34;102510.59;;;0.33;98.37
829;BME280;396;52.558;13.188;2023-02-15T03:19:06;102517.66;;;0.26;97.44
829;BME280;396;52.558;13.188;2023-02-15T03:21:36;102509.88;;;0.24;98.27
829;BME280;396;52.558;13.188;2023-02-15T03:24:08;102515.19;;;0.24;97.41
829;BME280;396;52.558;13.188;2023-02-15T03:26:36;102514.66;;;0.14;97.90
829;BME280;396;52.558;13.188;2023-02-15T03:29:05;102506.38;;;0.09;98.22
829;BME280;396;52.558;13.188;2023-02-15T03:31:37;102504.34;;;0.11;98.94
829;BME280;396;52.558;13.188;2023-02-15T03:34:09;102500.31;;;0.15;98.95
829;BME280;396;52.558;13.188;2023-02-15T03:36:41;102501.25;;;0.22;98.91
829;BME280;396;52.558;13.188;2023-02-15T03:39:13;102500.78;;;0.19;99.40
829;BME280;396;52.558;13.188;2023-02-15T03:41:45;102498.28;;;0.17;98.89
829;BME280;396;52.558;13.188;2023-02-15T03:44:18;102492.13;;;0.17;99.06
829;BME280;396;52.558;13.188;2023-02-15T03:46:49;102492.94;;;0.17;98.54
829;BME280;396;52.558;13.188;2023-02-15T03:49:23;102495.44;;;0.19;98.85
829;BME280;396;52.558;13.188;2023-02-15T03:51:54;102497.00;;;0.13;97.96
829;BME280;396;52.558;13.188;2023-02-15T03:54:24;102498.03;;;-0.03;98.82
829;BME280;396;52.558;13.188;2023-02-15T03:57:13;102497.91;;;-0.09;99.24
829;BME280;396;52.558;13.188;2023-02-15T03:59:58;102490.84;;;-0.02;99.96
829;BME280;396;52.558;13.188;2023-02-15T04:02:52;102486.81;;;0.02;98.92
829;BME280;396;52.558;13.188;2023-02-15T04:05:24;102480.94;;;0.07;98.57
829;BME280;396;52.558;13.188;2023-02-15T04:07:50;102482.97;;;0.05;98.83
829;BME280;396;52.558;13.188;2023-02-15T04:10:17;102472.56;;;-0.05;98.39
829;BME280;396;52.558;13.188;2023-02-15T04:13:01;102477.53;;;-0.02;98.64
829;BME280;396;52.558;13.188;2023-02-15T04:15:27;102477.81;;;0.03;98.70
829;BME280;396;52.558;13.188;2023-02-15T04:18:12;102478.28;;;-0.08;98.34
829;BME280;396;52.558;13.188;2023-02-15T04:20:43;102477.63;;;-0.10;98.82
829;BME280;396;52.558;13.188;2023-02-15T04:23:27;102474.59;;;-0.07;99.26
829;BME280;396;52.558;13.188;2023-02-15T04:26:11;102470.91;;;-0.06;99.51
829;BME280;396;52.558;13.188;2023-02-15T04:28:38;102467.53;;;0.00;98.98
829;BME280;396;52.558;13.188;2023-02-15T04:31:04;102470.63;;;0.04;98.80
829;BME280;396;52.558;13.188;2023-02-15T04:33:31;102463.47;;;0.04;99.54
829;BME280;396;52.558;13.188;2023-02-15T04:35:59;102455.13;;;0.07;99.51
829;BME280;396;52.558;13.188;2023-02-15T04:38:26;102460.91;;;0.11;99.07
829;BME280;396;52.558;13.188;2023-02-15T04:40:52;102452.53;;;-0.01;99.50
829;BME280;396;52.558;13.188;2023-02-15T04:43:19;102448.91;;;0.00;99.58
829;BME280;396;52.558;13.188;2023-02-15T04:45:49;102442.44;;;-0.06;99.86
829;BME280;396;52.558;13.188;2023-02-15T04:48:16;102444.81;;;0.04;99.80
829;BME280;396;52.558;13.188;2023-02-15T04:50:43;102439.22;;;-0.01;99.62
829;BME280;396;52.558;13.188;2023-02-15T04:53:11;102435.75;;;-0.02;99.77
829;BME280;396;52.558;13.188;2023-02-15T04:55:38;102431.69;;;0.03;99.38
829;BME280;396;52.558;13.188;2023-02-15T04:58:04;102424.72;;;0.02;97.74
829;BME280;396;52.558;13.188;2023-02-15T05:00:31;102417.91;;;-0.01;97.50
829;BME280;396;52.558;13.188;2023-02-15T05:02:57;102414.34;;;-0.08;98.01
829;BME280;396;52.558;13.188;2023-02-15T05:05:24;102421.16;;;-0.20;98.00
829;BME280;396;52.558;13.188;2023-02-15T05:07:51;102418.84;;;-0.23;98.44
829;BME280;396;52.558;13.188;2023-02-15T05:10:19;102414.91;;;-0.28;98.15
829;BME280;396;52.558;13.188;2023-02-15T05:12:45;102412.78;;;-0.32;97.78
829;BME280;396;52.558;13.188;2023-02-15T05:15:12;102415.91;;;-0.29;98.55
829;BME280;396;52.558;13.188;2023-02-15T05:17:39;102414.44;;;-0.16;98.44
829;BME280;396;52.558;13.188;2023-02-15T05:20:06;102416.28;;;-0.32;97.70
829;BME280;396;52.558;13.188;2023-02-15T05:22:33;102419.41;;;-0.28;98.19
829;BME280;396;52.558;13.188;2023-02-15T05:25:00;102413.25;;;-0.29;98.38
829;BME280;396;52.558;13.188;2023-02-15T05:27:45;102417.47;;;-0.19;97.35
829;BME280;396;52.558;13.188;2023-02-15T05:30:29;102407.72;;;-0.27;96.72
829;BME280;396;52.558;13.188;2023-02-15T05:32:56;102403.53;;;-0.21;97.18
829;BME280;396;52.558;13.188;2023-02-15T05:35:22;102409.78;;;-0.29;97.54
829;BME280;396;52.558;13.188;2023-02-15T05:37:49;102404.63;;;-0.31;97.14
829;BME280;396;52.558;13.188;2023-02-15T05:40:16;102398.66;;;-0.33;96.90
829;BME280;396;52.558;13.188;2023-02-15T05:42:42;102396.63;;;-0.45;97.51
829;BME280;396;52.558;13.188;2023-02-15T05:45:10;102394.25;;;-0.40;97.82
829;BME280;396;52.558;13.188;2023-02-15T05:47:37;102392.78;;;-0.43;96.79
829;BME280;396;52.558;13.188;2023-02-15T05:50:05;102391.41;;;-0.39;97.16
829;BME280;396;52.558;13.188;2023-02-15T05:52:31;102399.66;;;-0.34;96.45
829;BME280;396;52.558;13.188;2023-02-15T05:54:58;102392.22;;;-0.38;96.25
829;BME280;396;52.558;13.188;2023-02-15T05:57:25;102392.69;;;-0.35;97.18
829;BME280;396;52.558;13.188;2023-02-15T05:59:52;102394.53;;;-0.35;97.64
829;BME280;396;52.558;13.188;2023-02-15T06:02:20;102400.06;;;-0.22;97.38
829;BME280;396;52.558;13.188;2023-02-15T06:04:46;102387.66;;;-0.30;97.20
829;BME280;396;52.558;13.188;2023-02-15T06:07:13;102391.03;;;-0.36;96.93
829;BME280;396;52.558;13.188;2023-02-15T06:09:39;102389.56;;;-0.38;97.81
829;BME280;396;52.558;13.188;2023-02-15T06:12:06;102383.78;;;-0.42;97.97
829;BME280;396;52.558;13.188;2023-02-15T06:14:33;102391.88;;;-0.35;97.52
829;BME280;396;52.558;13.188;2023-02-15T06:16:59;102389.03;;;-0.34;97.31
829;BME280;396;52.558;13.188;2023-02-15T06:19:27;102389.03;;;-0.34;97.35
829;BME280;396;52.558;13.188;2023-02-15T06:21:54;102386.38;;;-0.34;97.34
829;BME280;396;52.558;13.188;2023-02-15T06:24:22;102388.75;;;-0.39;97.42
829;BME280;396;52.558;13.188;2023-02-15T06:26:49;102381.59;;;-0.38;97.56
829;BME280;396;52.558;13.188;2023-02-15T06:29:15;102383.50;;;-0.32;98.12
829;BME280;396;52.558;13.188;2023-02-15T06:31:42;102377.88;;;-0.22;97.90
829;BME280;396;52.558;13.188;2023-02-15T06:34:09;102383.59;;;-0.26;99.03
829;BME280;396;52.558;13.188;2023-02-15T06:36:37;102389.19;;;-0.20;99.39
829;BME280;396;52.558;13.188;2023-02-15T06:39:03;102384.34;;;-0.17;99.94
829;BME280;396;52.558;13.188;2023-02-15T06:41:30;102387.06;;;-0.10;100.00
829;BME280;396;52.558;13.188;2023-02-15T06:43:57;102381.19;;;-0.06;100.00
829;BME280;396;52.558;13.188;2023-02-15T06:46:23;102382.75;;;-0.11;100.00
829;BME280;396;52.558;13.188;2023-02-15T06:48:50;102382.84;;;-0.05;100.00
829;BME280;396;52.558;13.188;2023-02-15T06:51:17;102384.56;;;0.03;100.00
829;BME280;396;52.558;13.188;2023-02-15T06:53:45;102384.84;;;0.08;100.00
829;BME280;396;52.558;13.188;2023-02-15T06:56:12;102390.06;;;0.16;100.00
829;BME280;396;52.558;13.188;2023-02-15T06:58:39;102390.97;;;0.23;100.00
829;BME280;396;52.558;13.188;2023-02-15T07:01:06;102390.66;;;0.33;100.00
829;BME280;396;52.558;13.188;2023-02-15T07:03:34;102380.72;;;0.42;100.00
829;BME280;396;52.558;13.188;2023-02-15T07:06:02;102379.09;;;0.62;100.00
829;BME280;396;52.558;13.188;2023-02-15T07:08:31;102378.81;;;0.79;100.00
829;BME280;396;52.558;13.188;2023-02-15T07:10:59;102376.00;;;0.87;100.00
829;BME280;396;52.558;13.188;2023-02-15T07:13:47;102377.34;;;0.97;100.00
829;BME280;396;52.558;13.188;2023-02-15T07:16:12;102375.34;;;1.06;100.00
829;BME280;396;52.558;13.188;2023-02-15T07:18:39;102363.34;;;1.17;100.00
829;BME280;396;52.558;13.188;2023-02-15T07:21:06;102360.31;;;1.26;100.00
829;BME280;396;52.558;13.188;2023-02-15T07:23:34;102358.09;;;1.37;100.00
829;BME280;396;52.558;13.188;2023-02-15T07:26:02;102349.19;;;1.51;100.00
829;BME280;396;52.558;13.188;2023-02-15T07:28:29;102353.56;;;1.65;100.00
829;BME280;396;52.558;13.188;2023-02-15T07:30:56;102353.19;;;1.68;100.00
829;BME280;396;52.558;13.188;2023-02-15T07:33:23;102346.59;;;1.64;100.00
829;BME280;396;52.558;13.188;2023-02-15T07:35:53;102343.72;;;1.72;100.00
829;BME280;396;52.558;13.188;2023-02-15T07:38:21;102345.41;;;1.80;100.00
829;BME280;396;52.558;13.188;2023-02-15T07:40:48;102342.72;;;1.80;100.00
829;BME280;396;52.558;13.188;2023-02-15T07:43:16;102343.72;;;1.72;100.00
829;BME280;396;52.558;13.188;2023-02-15T07:45:42;102340.50;;;1.84;100.00
829;BME280;396;52.558;13.188;2023-02-15T07:48:09;102339.28;;;1.93;100.00
829;BME280;396;52.558;13.188;2023-02-15T07:50:36;102343.00;;;1.92;100.00
829;BME280;396;52.558;13.188;2023-02-15T07:53:02;102337.06;;;2.03;100.00
829;BME280;396;52.558;13.188;2023-02-15T07:55:30;102336.88;;;2.05;100.00
829;BME280;396;52.558;13.188;2023-02-15T07:57:56;102340.53;;;1.97;100.00
829;BME280;396;52.558;13.188;2023-02-15T08:00:24;102338.69;;;1.91;100.00
829;BME280;396;52.558;13.188;2023-02-15T08:02:53;102329.00;;;1.90;100.00
829;BME280;396;52.558;13.188;2023-02-15T08:05:33;102336.84;;;1.91;100.00
829;BME280;396;52.558;13.188;2023-02-15T08:08:00;102336.19;;;1.89;100.00
829;BME280;396;52.558;13.188;2023-02-15T08:10:27;102326.38;;;1.96;100.00
829;BME280;396;52.558;13.188;2023-02-15T08:13:07;102332.75;;;2.02;100.00
829;BME280;396;52.558;13.188;2023-02-15T08:15:35;102318.00;;;2.13;100.00
829;BME280;396;52.558;13.188;2023-02-15T08:18:02;102324.78;;;2.15;100.00
829;BME280;396;52.558;13.188;2023-02-15T08:20:28;102326.25;;;2.31;100.00
829;BME280;396;52.558;13.188;2023-02-15T08:22:55;102324.63;;;2.37;100.00
829;BME280;396;52.558;13.188;2023-02-15T08:25:21;102320.50;;;2.47;100.00
829;BME280;396;52.558;13.188;2023-02-15T08:27:49;102317.63;;;2.56;100.00
829;BME280;396;52.558;13.188;2023-02-15T08:30:15;102313.94;;;2.63;100.00
829;BME280;396;52.558;13.188;2023-02-15T08:32:43;102317.03;;;2.67;100.00
829;BME280;396;52.558;13.188;2023-02-15T08:35:10;102309.19;;;2.78;100.00
829;BME280;396;52.558;13.188;2023-02-15T08:37:37;102310.03;;;2.79;100.00
829;BME280;396;52.558;13.188;2023-02-15T08:40:04;102310.84;;;2.86;100.00
829;BME280;396;52.558;13.188;2023-02-15T08:42:32;102316.41;;;2.98;100.00
829;BME280;396;52.558;13.188;2023-02-15T08:44:59;102306.31;;;3.00;100.00
829;BME280;396;52.558;13.188;2023-02-15T08:47:25;102310.22;;;3.04;100.00
829;BME280;396;52.558;13.188;2023-02-15T08:49:53;102307.72;;;3.16;100.00
829;BME280;396;52.558;13.188;2023-02-15T08:52:21;102305.66;;;3.24;100.00
829;BME280;396;52.558;13.188;2023-02-15T08:54:47;102312.84;;;3.31;100.00
829;BME280;396;52.558;13.188;2023-02-15T08:57:14;102299.88;;;3.27;100.00
829;BME280;396;52.558;13.188;2023-02-15T08:59:40;102305.03;;;3.22;100.00
829;BME280;396;52.558;13.188;2023-02-15T09:02:09;102296.78;;;3.31;100.00
829;BME280;396;52.558;13.188;2023-02-15T09:04:36;102297.41;;;3.33;100.00
829;BME280;396;52.558;13.188;2023-02-15T09:07:04;102295.72;;;3.32;100.00
829;BME280;396;52.558;13.188;2023-02-15T09:09:31;102287.53;;;3.20;100.00
829;BME280;396;52.558;13.188;2023-02-15T09:11:58;102290.84;;;3.09;100.00
829;BME280;396;52.558;13.188;2023-02-15T09:14:25;102287.13;;;3.16;100.00
829;BME280;396;52.558;13.188;2023-02-15T09:16:52;102291.63;;;3.29;100.00
829;BME280;396;52.558;13.188;2023-02-15T09:19:21;102288.75;;;3.37;100.00
829;BME280;396;52.558;13.188;2023-02-15T09:21:48;102288.69;;;3.50;100.00
829;BME280;396;52.558;13.188;2023-02-15T09:24:16;102286.38;;;3.61;100.00
829;BME280;396;52.558;13.188;2023-02-15T09:26:45;102289.66;;;3.69;100.00
829;BME280;396;52.558;13.188;2023-02-15T09:29:12;102290.41;;;3.83;100.00
829;BME280;396;52.558;13.188;2023-02-15T09:31:41;102297.13;;;3.99;100.00
829;BME280;396;52.558;13.188;2023-02-15T09:34:09;102294.16;;;4.14;99.95
829;BME280;396;52.558;13.188;2023-02-15T09:36:37;102287.06;;;4.26;98.78
829;BME280;396;52.558;13.188;2023-02-15T09:39:08;102281.53;;;4.21;97.32
829;BME280;396;52.558;13.188;2023-02-15T09:42:10;102283.34;;;4.27;96.82
829;BME280;396;52.558;13.188;2023-02-15T09:44:55;102275.84;;;4.36;96.87
829;BME280;396;52.558;13.188;2023-02-15T09:47:53;102275.84;;;4.36;97.01
829;BME280;396;52.558;13.188;2023-02-15T09:50:29;102282.94;;;4.23;96.79
829;BME280;396;52.558;13.188;2023-02-15T09:53:10;102287.22;;;4.31;97.02
829;BME280;396;52.558;13.188;2023-02-15T09:55:48;102287.91;;;4.20;97.23
829;BME280;396;52.558;13.188;2023-02-15T09:58:27;102287.25;;;4.24;97.14
829;BME280;396;52.558;13.188;2023-02-15T10:01:02;102292.38;;;4.33;97.45
829;BME280;396;52.558;13.188;2023-02-15T10:03:39;102282.75;;;4.50;97.67
829;BME280;396;52.558;13.188;2023-02-15T10:06:28;102286.00;;;4.59;97.53
829;BME280;396;52.558;13.188;2023-02-15T10:09:03;102275.53;;;4.75;96.82
829;BME280;396;52.558;13.188;2023-02-15T10:11:46;102281.50;;;4.77;96.43
829;BME280;396;52.558;13.188;2023-02-15T10:14:33;102273.78;;;4.88;96.17
829;BME280;396;52.558;13.188;2023-02-15T10:17:12;102272.09;;;4.87;95.58
829;BME280;396;52.558;13.188;2023-02-15T10:19:50;102281.06;;;4.80;95.45
829;BME280;396;52.558;13.188;2023-02-15T10:22:29;102258.22;;;4.71;95.59
829;BME280;396;52.558;13.188;2023-02-15T10:25:20;102260.09;;;4.71;96.36
829;BME280;396;52.558;13.188;2023-02-15T10:27:50;102258.25;;;4.65;96.38
829;BME280;396;52.558;13.188;2023-02-15T10:30:23;102255.00;;;4.63;96.89
829;BME280;396;52.558;13.188;2023-02-15T10:32:59;102248.41;;;4.84;97.69
829;BME280;396;52.558;13.188;2023-02-15T10:35:32;102249.63;;;5.06;97.36
829;BME280;396;52.558;13.188;2023-02-15T10:38:17;102253.22;;;5.18;96.43
829;BME280;396;52.558;13.188;2023-02-15T10:40:51;102245.22;;;5.12;95.34
829;BME280;396;52.558;13.188;2023-02-15T10:43:38;102240.09;;;5.10;95.37
829;BME280;396;52.558;13.188;2023-02-15T10:46:23;102237.69;;;5.02;94.73
829;BME280;396;52.558;13.188;2023-02-15T10:49:03;102241.78;;;5.04;95.65
829;BME280;396;52.558;13.188;2023-02-15T10:51:40;102224.56;;;5.12;95.89
829;BME280;396;52.558;13.188;2023-02-15T10:54:20;102225.44;;;5.24;96.01
829;BME280;396;52.558;13.188;2023-02-15T10:56:55;102224.91;;;5.34;94.84
829;BME280;396;52.558;13.188;2023-02-15T10:59:47;102224.91;;;5.34;94.08
829;BME280;396;52.558;13.188;2023-02-15T11:02:25;102223.22;;;5.21;93.59
829;BME280;396;52.558;13.188;2023-02-15T11:05:07;102227.19;;;5.19;93.89
829;BME280;396;52.558;13.188;2023-02-15T11:07:44;102229.47;;;5.15;94.26
829;BME280;396;52.558;13.188;2023-02-15T11:10:22;102219.69;;;5.21;93.91
829;BME280;396;52.558;13.188;2023-02-15T11:12:51;102221.13;;;5.42;92.78
829;BME280;396;52.558;13.188;2023-02-15T11:15:24;102218.84;;;5.57;93.19
829;BME280;396;52.558;13.188;2023-02-15T11:17:57;102213.28;;;5.70;93.19
829;BME280;396;52.558;13.188;2023-02-15T11:20:29;102206.19;;;5.76;92.50
829;BME280;396;52.558;13.188;2023-02-15T11:22:57;102211.69;;;5.81;91.68
829;BME280;396;52.558;13.188;2023-02-15T11:25:29;102205.69;;;5.97;91.10
829;BME280;396;52.558;13.188;2023-02-15T11:27:57;102208.31;;;6.16;91.70
829;BME280;396;52.558;13.188;2023-02-15T11:30:27;102204.00;;;6.26;90.35
829;BME280;396;52.558;13.188;2023-02-15T11:32:58;102206.13;;;6.83;90.27
829;BME280;396;52.558;13.188;2023-02-15T11:35:29;102210.59;;;7.87;85.97
829;BME280;396;52.558;13.188;2023-02-15T11:38:03;102205.03;;;9.16;80.76
829;BME280;396;52.558;13.188;2023-02-15T11:40:35;102201.78;;;10.49;75.39
829;BME280;396;52.558;13.188;2023-02-15T11:43:05;102208.75;;;11.50;68.86
829;BME280;396;52.558;13.188;2023-02-15T11:45:34;102204.81;;;12.19;62.46
829;BME280;396;52.558;13.188;2023-02-15T11:48:08;102199.81;;;12.93;60.93
829;BME280;396;52.558;13.188;2023-02-15T11:50:36;102200.09;;;14.00;58.17
829;BME280;396;52.558;13.188;2023-02-15T11:53:05;102202.94;;;14.77;56.19
829;BME280;396;52.558;13.188;2023-02-15T11:55:35;102205.81;;;15.53;52.47
829;BME280;396;52.558;13.188;2023-02-15T11:58:05;102204.25;;;15.89;51.31
829;BME280;396;52.558;13.188;2023-02-15T12:00:37;102202.72;;;16.16;49.92
829;BME280;396;52.558;13.188;2023-02-15T12:03:14;102197.31;;;16.44;49.02
829;BME280;396;52.558;13.188;2023-02-15T12:05:45;102196.38;;;16.81;49.07
829;BME280;396;52.558;13.188;2023-02-15T12:08:16;102190.16;;;16.15;48.62
829;BME280;396;52.558;13.188;2023-02-15T12:10:55;102185.78;;;16.14;48.82
829;BME280;396;52.558;13.188;2023-02-15T12:13:23;102185.69;;;16.52;48.09
829;BME280;396;52.558;13.188;2023-02-15T12:15:51;102192.28;;;16.64;47.21
829;BME280;396;52.558;13.188;2023-02-15T12:18:31;102185.91;;;16.69;47.32
829;BME280;396;52.558;13.188;2023-02-15T12:21:02;102185.91;;;17.24;46.03
829;BME280;396;52.558;13.188;2023-02-15T12:23:31;102180.63;;;18.00;45.12
829;BME280;396;52.558;13.188;2023-02-15T12:25:59;102177.47;;;17.84;44.68
829;BME280;396;52.558;13.188;2023-02-15T12:28:30;102176.25;;;17.40;45.42
829;BME280;396;52.558;13.188;2023-02-15T12:30:58;102171.88;;;17.39;45.75
829;BME280;396;52.558;13.188;2023-02-15T12:33:29;102165.78;;;17.79;45.58
829;BME280;396;52.558;13.188;2023-02-15T12:35:59;102172.47;;;18.40;44.49
829;BME280;396;52.558;13.188;2023-02-15T12:38:27;102166.78;;;18.67;43.33
829;BME280;396;52.558;13.188;2023-02-15T12:40:59;102166.13;;;19.02;43.25
829;BME280;396;52.558;13.188;2023-02-15T12:43:29;102160.47;;;19.15;42.36
829;BME280;396;52.558;13.188;2023-02-15T12:46:14;102164.41;;;19.40;41.48
829;BME280;396;52.558;13.188;2023-02-15T12:48:46;102155.53;;;19.78;40.40
829;BME280;396;52.558;13.188;2023-02-15T12:51:15;102152.44;;;19.97;39.87
829;BME280;396;52.558;13.188;2023-02-15T12:53:41;102159.63;;;20.36;39.45
829;BME280;396;52.558;13.188;2023-02-15T12:56:10;102152.94;;;20.55;39.53
829;BME280;396;52.558;13.188;2023-02-15T12:58:37;102147.38;;;20.72;39.51
829;BME280;396;52.558;13.188;2023-02-15T13:01:11;102136.13;;;20.48;39.36
829;BME280;396;52.558;13.188;2023-02-15T13:03:58;102135.41;;;20.04;40.52
829;BME280;396;52.558;13.188;2023-02-15T13:06:26;102133.13;;;20.23;40.21
829;BME280;396;52.558;13.188;2023-02-15T13:08:54;102129.50;;;20.31;39.84
829;BME280;396;52.558;13.188;2023-02-15T13:11:25;102122.50;;;19.96;40.18
829;BME280;396;52.558;13.188;2023-02-15T13:13:54;102113.94;;;19.19;41.52
829;BME280;396;52.558;13.188;2023-02-15T13:16:28;102115.00;;;18.75;42.12
829;BME280;396;52.558;13.188;2023-02-15T13:19:02;102107.16;;;18.51;44.37
829;BME280;396;52.558;13.188;2023-02-15T13:21:34;102108.75;;;18.12;43.49
829;BME280;396;52.558;13.188;2023-02-15T13:24:05;102100.31;;;17.77;44.14
829;BME280;396;52.558;13.188;2023-02-15T13:26:34;102097.78;;;17.22;44.92
829;BME280;396;52.558;13.188;2023-02-15T13:29:06;102092.44;;;17.03;46.01
829;BME280;396;52.558;13.188;2023-02-15T13:31:35;102090.84;;;16.61;46.63
829;BME280;396;52.558;13.188;2023-02-15T13:34:10;102085.88;;;16.77;47.40
829;BME280;396;52.558;13.188;2023-02-15T13:36:44;102091.88;;;16.93;46.59
829;BME280;396;52.558;13.188;2023-02-15T13:39:22;102087.00;;;16.48;47.18
829;BME280;396;52.558;13.188;2023-02-15T13:41:58;102079.59;;;16.21;47.72
829;BME280;396;52.558;13.188;2023-02-15T13:47:21;102083.69;;;15.91;49.12
829;BME280;396;52.558;13.188;2023-02-15T13:50:06;102067.16;;;15.82;48.68
829;BME280;396;52.558;13.188;2023-02-15T13:52:44;102070.97;;;15.49;49.65